Time;durP1;ratioP1;P1;durP2;ratioP2;P2;SDS_P1;SDS_P2;PMS_P1;PMS_P2;Temp;Humidity;BMP_temperature;BMP_pressure;BME280_temperature;BME280_humidity;BME280_pressure;Samples;Min_cycle;Max_cycle;Signal;HPM_P1;HPM_P2
2023/03/19 00:02:13;;;;;;;6.78;3.67;;;;;;;1.05;74.16;62109.13;5029276;28;20242;-78
2023/03/19 00:04:40;;;;;;;5.55;3.38;;;;;;;1.03;73.86;62104.56;5026147;28;20202;-77
2023/03/19 00:07:07;;;;;;;4.28;3.22;;;;;;;1.01;74.47;62102.53;5013619;28;20594;-78
2023/03/19 00:09:36;;;;;;;4.82;3.20;;;;;;;1.01;75.01;62102.53;5019065;28;20261;-77
2023/03/19 00:12:02;;;;;;;10.95;5.93;;;;;;;1.03;74.88;62106.56;5027104;28;20567;-78
2023/03/19 00:14:29;;;;;;;12.02;6.18;;;;;;;1.00;75.40;62103.50;5024623;28;20258;-80
2023/03/19 00:16:57;;;;;;;4.18;3.55;;;;;;;1.00;75.63;62101.00;5025874;28;20225;-79
2023/03/19 00:19:24;;;;;;;4.53;4.20;;;;;;;0.96;76.14;62097.41;5027192;28;20214;-78
2023/03/19 00:21:51;;;;;;;3.75;3.35;;;;;;;0.95;76.55;62100.84;5028191;28;20217;-79
2023/03/19 00:24:18;;;;;;;3.55;2.80;;;;;;;0.93;77.43;62096.31;5026740;28;20277;-77
2023/03/19 00:26:46;;;;;;;3.58;2.72;;;;;;;0.96;76.34;62099.91;5013889;28;20236;-78
2023/03/19 00:29:14;;;;;;;3.80;3.50;;;;;;;0.95;75.51;62093.34;5027649;28;20203;-77
2023/03/19 00:31:41;;;;;;;3.05;2.78;;;;;;;0.95;74.83;62093.84;5042619;28;20550;-78
2023/03/19 00:34:10;;;;;;;4.03;3.33;;;;;;;0.98;74.63;62101.94;5028676;28;20203;-78
2023/03/19 00:36:37;;;;;;;3.13;2.92;;;;;;;0.97;74.90;62100.41;5028769;28;20222;-77
2023/03/19 00:39:04;;;;;;;5.28;3.70;;;;;;;1.00;75.38;62101.00;5028134;28;20514;-80
2023/03/19 00:41:32;;;;;;;7.32;3.92;;;;;;;0.99;75.46;62099.94;5027036;28;20261;-79
2023/03/19 00:44:00;;;;;;;5.28;3.70;;;;;;;1.00;75.57;62106.50;5027988;28;20234;-79
2023/03/19 00:46:27;;;;;;;3.95;2.90;;;;;;;0.98;74.54;62098.94;5010396;28;20223;-79
2023/03/19 00:48:55;;;;;;;2.90;2.70;;;;;;;1.05;73.80;62106.63;5007163;28;20446;-79
2023/03/19 00:51:23;;;;;;;3.10;2.90;;;;;;;1.04;73.30;62107.59;5010180;28;20571;-78
2023/03/19 00:53:52;;;;;;;2.85;2.63;;;;;;;1.04;73.57;62107.59;5012401;28;20530;-78
2023/03/19 00:56:20;;;;;;;3.13;2.83;;;;;;;0.98;74.08;62104.44;5025978;28;20226;-78
2023/03/19 00:58:47;;;;;;;2.92;2.72;;;;;;;1.01;73.07;62102.53;5028646;28;20190;-80
2023/03/19 01:01:17;;;;;;;2.78;2.58;;;;;;;0.99;73.39;62104.97;5026034;28;20198;-78
2023/03/19 01:03:45;;;;;;;2.67;2.47;;;;;;;0.99;73.12;62100.47;5024076;28;20234;-79
2023/03/19 01:06:12;;;;;;;3.03;2.70;;;;;;;0.96;73.40;62097.41;5028177;28;20199;-78
2023/03/19 01:08:39;;;;;;;3.28;2.85;;;;;;;0.97;73.48;62095.41;5028742;28;20258;-78
2023/03/19 01:11:08;;;;;;;3.47;3.03;;;;;;;0.96;73.51;62096.88;5026987;28;20206;-79
2023/03/19 01:13:36;;;;;;;2.20;2.10;;;;;;;0.99;73.35;62099.94;5024794;28;20202;-78
2023/03/19 01:16:03;;;;;;;2.40;2.30;;;;;;;0.94;72.55;62095.34;5031433;28;20206;-79
2023/03/19 01:18:31;;;;;;;2.60;2.40;;;;;;;0.98;72.19;62101.44;5026718;28;20199;-79
2023/03/19 01:20:59;;;;;;;2.70;2.50;;;;;;;0.96;72.70;62097.41;5021828;28;20202;-80
2023/03/19 01:23:25;;;;;;;3.20;3.00;;;;;;;0.95;73.59;62098.34;5022560;28;20539;-79
2023/03/19 01:25:52;;;;;;;2.75;2.65;;;;;;;0.93;73.09;62091.81;5033753;28;20229;-79
2023/03/19 01:28:21;;;;;;;6.95;3.03;;;;;;;0.91;73.74;62097.28;5025077;28;20241;-78
2023/03/19 01:30:48;;;;;;;5.88;2.78;;;;;;;0.90;74.33;62093.75;5028728;28;20202;-78
2023/03/19 01:33:15;;;;;;;3.97;3.28;;;;;;;0.87;74.82;62090.16;5027433;28;20400;-79
2023/03/19 01:35:46;;;;;;;2.95;2.78;;;;;;;0.84;75.77;62087.59;5033948;28;20194;-78
2023/03/19 01:38:13;;;;;;;12.93;3.50;;;;;;;0.75;76.61;62080.88;5024825;28;20217;-79
2023/03/19 01:40:45;;;;;;;5.70;3.10;;;;;;;0.64;79.38;62067.06;5026903;28;20273;-78
2023/03/19 01:43:17;;;;;;;5.70;3.50;;;;;;;0.64;79.19;62069.09;5027360;28;20310;-79
2023/03/19 01:45:45;;;;;;;5.35;3.78;;;;;;;0.57;79.89;62062.41;5025890;28;20249;-77
2023/03/19 01:48:28;;;;;;;6.47;4.13;;;;;;;0.56;79.80;62060.88;5026082;28;20219;-80
2023/03/19 01:50:58;;;;;;;6.65;3.72;;;;;;;0.53;79.41;62050.81;5026808;28;20218;-78
2023/03/19 01:53:27;;;;;;;4.35;3.95;;;;;;;0.53;80.06;62053.31;5026641;28;20199;-78
2023/03/19 01:55:59;;;;;;;4.18;3.78;;;;;;;0.53;80.19;62058.31;5024685;28;20198;-79
2023/03/19 01:58:26;;;;;;;4.32;3.55;;;;;;;0.60;79.68;62059.97;5022373;28;20219;-79
2023/03/19 02:00:54;;;;;;;7.82;4.55;;;;;;;0.57;79.63;62059.91;5039600;28;20224;-78
2023/03/19 02:03:22;;;;;;;5.20;4.53;;;;;;;0.60;78.87;62064.97;5048275;28;20242;-77
2023/03/19 02:05:51;;;;;;;6.30;4.15;;;;;;;0.62;78.07;62065.03;5030380;28;20253;-78
2023/03/19 02:08:22;;;;;;;5.85;3.00;;;;;;;0.54;77.77;62056.31;5024969;28;20590;-78
2023/03/19 02:10:52;;;;;;;6.80;2.85;;;;;;;0.65;75.56;62068.13;5027484;28;20213;-79
2023/03/19 02:13:19;;;;;;;4.50;3.65;;;;;;;0.66;75.35;62066.63;5026925;28;20230;-79
2023/03/19 02:15:48;;;;;;;4.75;3.70;;;;;;;0.65;76.50;62067.59;5020626;28;20203;-79
2023/03/19 02:18:15;;;;;;;5.13;4.13;;;;;;;0.64;76.49;62069.56;5008237;28;20275;-79
2023/03/19 02:20:48;;;;;;;5.28;3.67;;;;;;;0.62;77.24;62059.50;5007478;28;20512;-78
2023/03/19 02:23:26;;;;;;;6.40;3.88;;;;;;;0.66;77.40;62066.09;5020926;28;20234;-78
2023/03/19 02:26:03;;;;;;;4.82;4.20;;;;;;;0.65;77.33;62070.09;5030893;28;20202;-78
2023/03/19 02:28:32;;;;;;;4.75;3.47;;;;;;;0.66;77.21;62074.13;5025871;28;20221;-79
2023/03/19 02:30:59;;;;;;;9.20;3.15;;;;;;;0.67;76.31;62067.66;5025693;28;20277;-78
2023/03/19 02:33:25;;;;;;;4.70;3.30;;;;;;;0.69;76.44;62069.19;5024089;28;20252;-79
2023/03/19 02:35:53;;;;;;;4.00;3.58;;;;;;;0.62;77.74;62064.53;5029800;28;20213;-80
2023/03/19 02:38:21;;;;;;;3.85;2.40;;;;;;;0.62;77.86;62060.00;5024139;28;20227;-78
2023/03/19 02:40:53;;;;;;;3.28;2.85;;;;;;;0.61;78.38;62061.50;5025893;28;20206;-78
2023/03/19 02:43:22;;;;;;;4.00;3.40;;;;;;;0.65;79.03;62070.09;5026589;28;20238;-77
2023/03/19 02:45:49;;;;;;;5.95;3.47;;;;;;;0.53;79.39;62053.31;5037789;28;20229;-78
2023/03/19 02:48:17;;;;;;;3.75;3.45;;;;;;;0.60;80.43;62055.47;5046174;28;20229;-79
2023/03/19 02:50:44;;;;;;;5.82;3.67;;;;;;;0.60;80.04;62062.47;5042839;28;20199;-78
2023/03/19 02:53:11;;;;;;;6.50;4.10;;;;;;;0.58;79.82;62058.44;5029542;28;20241;-77
2023/03/19 02:55:38;;;;;;;5.25;3.53;;;;;;;0.58;80.12;62060.41;5024272;28;20202;-77
2023/03/19 02:58:05;;;;;;;4.85;3.00;;;;;;;0.59;80.24;62061.44;5024876;28;20250;-78
2023/03/19 03:00:34;;;;;;;3.22;3.03;;;;;;;0.56;79.32;62060.88;5024985;28;20217;-78
2023/03/19 03:03:01;;;;;;;2.17;2.08;;;;;;;0.64;78.02;62066.56;5025366;28;20537;-79
2023/03/19 03:05:28;;;;;;;2.50;1.90;;;;;;;0.68;75.66;62070.66;5024857;28;20199;-78
2023/03/19 03:07:55;;;;;;;5.50;2.10;;;;;;;0.68;74.80;62063.16;5025687;28;20225;-78
2023/03/19 03:10:22;;;;;;;1.75;1.65;;;;;;;0.70;75.54;62073.25;5028386;28;20229;-79
2023/03/19 03:12:49;;;;;;;2.30;2.13;;;;;;;0.73;75.47;62076.31;5027780;28;20226;-77
2023/03/19 03:15:16;;;;;;;4.45;2.10;;;;;;;0.70;75.25;62075.75;5030434;28;20211;-77
2023/03/19 03:17:45;;;;;;;2.00;1.90;;;;;;;0.72;75.27;62075.28;5031583;28;20226;-78
2023/03/19 03:20:14;;;;;;;2.03;1.85;;;;;;;0.69;75.83;62071.69;5007591;28;20203;-77
2023/03/19 03:22:42;;;;;;;4.85;2.63;;;;;;;0.72;76.33;62074.78;5034387;28;20232;-78
2023/03/19 03:25:10;;;;;;;6.00;3.45;;;;;;;0.67;76.58;62072.66;5043400;28;20289;-77
2023/03/19 03:27:38;;;;;;;5.25;3.15;;;;;;;0.66;77.41;62068.59;5027870;28;20226;-77
2023/03/19 03:30:06;;;;;;;2.42;2.22;;;;;;;0.64;77.80;62062.06;5028079;28;20199;-78
2023/03/19 03:32:34;;;;;;;2.80;2.63;;;;;;;0.65;78.10;62065.09;5033077;28;20227;-78
2023/03/19 03:35:02;;;;;;;2.75;2.40;;;;;;;0.63;78.15;62063.03;5030724;28;20465;-78
2023/03/19 03:37:29;;;;;;;3.13;2.92;;;;;;;0.61;78.06;62060.97;5026221;28;20413;-78
2023/03/19 03:39:56;;;;;;;2.85;2.65;;;;;;;0.58;78.34;62055.41;5027059;28;20225;-79
2023/03/19 03:42:23;;;;;;;3.40;2.15;;;;;;;0.55;78.09;62054.84;5041478;28;20218;-79
2023/03/19 03:44:50;;;;;;;2.70;2.50;;;;;;;0.56;78.76;62053.88;5049429;28;20233;-78
2023/03/19 03:47:17;;;;;;;2.00;1.85;;;;;;;0.61;79.01;62060.97;5008597;28;20235;-79
2023/03/19 03:49:44;;;;;;;3.45;2.55;;;;;;;0.57;78.59;62059.91;5012736;28;20222;-78
2023/03/19 03:52:13;;;;;;;5.13;2.00;;;;;;;0.50;79.53;62052.22;5031013;28;20265;-79
2023/03/19 03:54:40;;;;;;;2.83;2.63;;;;;;;0.46;79.75;62041.13;5026970;28;20218;-78
2023/03/19 03:57:07;;;;;;;2.97;2.60;;;;;;;0.44;80.29;62046.56;5026788;28;20215;-77
2023/03/19 03:59:34;;;;;;;2.33;2.13;;;;;;;0.35;80.83;62034.84;5027665;28;20241;-78
2023/03/19 04:02:02;;;;;;;5.00;2.60;;;;;;;0.40;80.63;62042.47;5029455;28;20515;-78
2023/03/19 04:04:29;;;;;;;2.72;2.53;;;;;;;0.40;80.93;62039.97;5015078;28;20298;-79
2023/03/19 04:06:56;;;;;;;3.60;2.83;;;;;;;0.33;81.37;62029.78;5024019;28;20223;-77
2023/03/19 04:09:25;;;;;;;3.42;3.13;;;;;;;0.28;nan;62027.66;5028536;28;20211;-77
2023/03/19 04:11:51;;;;;;;3.13;2.67;;;;;;;0.25;83.60;62024.06;5025597;28;20222;-77
2023/03/19 04:14:18;;;;;;;3.17;2.83;;;;;;;0.16;85.52;62017.88;5029330;28;20214;-78
2023/03/19 04:16:45;;;;;;;3.40;2.53;;;;;;;0.15;85.53;62016.34;5027968;28;20273;-78
2023/03/19 04:19:13;;;;;;;2.10;2.00;;;;;;;0.05;86.88;62001.59;5026326;28;20206;-77
2023/03/19 04:21:40;;;;;;;2.70;2.53;;;;;;;-0.02;87.21;61996.94;5028499;28;20223;-78
2023/03/19 04:24:08;;;;;;;2.92;2.72;;;;;;;-0.04;87.57;61990.38;5031979;28;20531;-78
2023/03/19 04:26:37;;;;;;;3.47;3.17;;;;;;;-0.05;87.84;61999.38;5025508;28;20226;-78
2023/03/19 04:29:04;;;;;;;2.70;2.50;;;;;;;-0.09;87.99;61982.25;5042154;28;20194;-77
2023/03/19 04:31:31;;;;;;;5.00;2.90;;;;;;;-0.12;88.74;61987.19;5029886;28;20267;-78
2023/03/19 04:33:59;;;;;;;3.22;2.92;;;;;;;-0.18;89.24;61983.53;5007321;28;20246;-79
2023/03/19 04:36:26;;;;;;;2.67;2.47;;;;;;;-0.16;89.52;61985.09;5007998;28;20243;-78
2023/03/19 04:38:53;;;;;;;2.90;2.63;;;;;;;-0.13;89.18;61985.66;5009125;28;20204;-79
2023/03/19 04:41:21;;;;;;;5.78;3.35;;;;;;;-0.15;88.91;61986.63;5017497;28;20238;-79
2023/03/19 04:43:50;;;;;;;7.60;4.07;;;;;;;-0.15;89.11;61983.59;5008293;28;20344;-78
2023/03/19 04:46:17;;;;;;;4.78;3.33;;;;;;;-0.12;89.04;61989.16;5011062;28;20268;-78
2023/03/19 04:48:44;;;;;;;4.15;3.50;;;;;;;-0.02;89.13;61996.94;5009446;28;20279;-77
2023/03/19 04:51:11;;;;;;;5.15;3.40;;;;;;;0.02;89.48;62001.00;5024656;28;20225;-78
2023/03/19 04:53:39;;;;;;;6.53;3.22;;;;;;;0.06;89.59;62004.59;5029349;28;20206;-79
2023/03/19 04:56:07;;;;;;;4.40;2.47;;;;;;;0.08;89.63;62004.66;5027032;28;20237;-79
2023/03/19 04:58:34;;;;;;;3.17;2.33;;;;;;;0.15;89.99;62019.34;5024789;28;20206;-79
2023/03/19 05:01:03;;;;;;;2.33;2.22;;;;;;;0.25;89.97;62027.09;5026601;28;20206;-79
2023/03/19 05:03:30;;;;;;;3.60;2.78;;;;;;;0.32;89.99;62034.28;5030210;28;20253;-78
2023/03/19 05:05:57;;;;;;;3.17;2.88;;;;;;;0.39;89.37;62045.94;5026100;28;20199;-78
2023/03/19 05:08:24;;;;;;;2.70;2.50;;;;;;;0.55;88.43;62057.84;5022955;28;20245;-79
2023/03/19 05:10:52;;;;;;;2.70;2.50;;;;;;;0.62;88.53;62065.03;5027561;28;20214;-78
2023/03/19 05:13:19;;;;;;;4.53;2.25;;;;;;;0.72;88.85;62070.28;5027193;28;20218;-79
2023/03/19 05:15:47;;;;;;;5.15;2.45;;;;;;;0.87;87.10;62085.13;5027016;28;20223;-80
2023/03/19 05:18:15;;;;;;;3.63;2.70;;;;;;;0.94;86.74;62095.34;5029756;28;20277;-76
2023/03/19 05:20:43;;;;;;;2.13;2.03;;;;;;;1.15;82.86;62123.91;5036600;28;20211;-78
2023/03/19 05:23:10;;;;;;;2.75;2.60;;;;;;;1.29;81.35;62130.22;5023523;28;20210;-77
2023/03/19 05:25:37;;;;;;;3.17;2.88;;;;;;;1.34;83.83;62135.34;5024865;28;20229;-77
2023/03/19 05:28:06;;;;;;;4.65;3.15;;;;;;;1.28;84.23;62129.19;5025924;28;20253;-78
2023/03/19 05:30:33;;;;;;;4.38;3.08;;;;;;;1.42;84.56;62146.06;5026964;28;20258;-77
2023/03/19 05:33:01;;;;;;;3.70;2.92;;;;;;;1.47;84.32;62151.69;5026385;28;20246;-76
2023/03/19 05:35:30;;;;;;;4.97;3.72;;;;;;;1.58;84.11;62165.50;5024800;28;20229;-76
2023/03/19 05:37:57;;;;;;;7.82;4.25;;;;;;;1.66;85.13;62173.72;5025188;28;20218;-76
2023/03/19 05:40:25;;;;;;;6.75;5.10;;;;;;;1.80;84.63;62180.03;5023472;28;20206;-77
2023/03/19 05:42:52;;;;;;;6.97;5.45;;;;;;;1.70;83.68;62169.78;5024865;28;20250;-76
2023/03/19 05:45:19;;;;;;;7.07;5.10;;;;;;;1.79;83.80;62182.06;5023101;28;20265;-75
2023/03/19 05:47:47;;;;;;;9.10;5.30;;;;;;;1.82;84.57;62185.13;5027444;28;20223;-77
2023/03/19 05:50:15;;;;;;;5.00;4.55;;;;;;;1.84;84.16;62186.66;5024878;28;20191;-77
2023/03/19 05:52:43;;;;;;;5.50;4.97;;;;;;;1.82;83.67;62185.13;5022884;28;20252;-76
2023/03/19 05:55:10;;;;;;;7.93;5.15;;;;;;;1.78;83.33;62181.00;5005196;28;20206;-78
2023/03/19 05:57:37;;;;;;;8.23;5.05;;;;;;;1.85;83.24;62190.72;5017137;28;20241;-76
2023/03/19 06:00:06;;;;;;;5.80;4.25;;;;;;;1.98;82.59;62199.06;5022955;28;20202;-77
2023/03/19 06:02:33;;;;;;;5.53;4.70;;;;;;;1.98;81.16;62201.56;5025160;28;20344;-76
2023/03/19 06:05:01;;;;;;;5.28;4.53;;;;;;;2.04;81.45;62209.69;5029152;28;20257;-77
2023/03/19 06:07:28;;;;;;;12.85;5.20;;;;;;;1.96;80.89;62201.50;5027163;28;20387;-76
2023/03/19 06:09:56;;;;;;;7.70;5.13;;;;;;;1.99;81.36;62205.09;5024074;28;20195;-78
2023/03/19 06:12:23;;;;;;;7.80;4.53;;;;;;;2.03;81.72;62208.69;5022245;28;20317;-76
2023/03/19 06:14:50;;;;;;;5.22;4.35;;;;;;;2.00;82.10;62205.59;5028822;28;20233;-79
2023/03/19 06:17:17;;;;;;;5.25;4.38;;;;;;;2.01;83.58;62204.13;5021343;28;20238;-78
2023/03/19 06:19:45;;;;;;;15.32;4.82;;;;;;;2.04;84.62;62212.22;5018093;28;20485;-78
2023/03/19 06:22:12;;;;;;;5.93;4.85;;;;;;;2.29;84.34;62235.91;5018808;28;20215;-78
2023/03/19 06:24:39;;;;;;;6.70;4.72;;;;;;;2.30;83.14;62238.91;5018474;28;20261;-78
2023/03/19 06:27:08;;;;;;;8.65;4.60;;;;;;;2.36;83.26;62243.06;5014590;28;20268;-78
2023/03/19 06:29:35;;;;;;;5.13;4.32;;;;;;;2.55;81.77;62261.56;5023162;28;20215;-79
2023/03/19 06:32:02;;;;;;;6.65;4.82;;;;;;;2.62;81.22;62269.28;5024809;28;20249;-78
2023/03/19 06:34:29;;;;;;;5.28;4.40;;;;;;;2.71;80.62;62283.53;5028884;28;20240;-78
2023/03/19 06:36:56;;;;;;;6.85;4.60;;;;;;;2.83;79.35;62287.84;5024514;28;20221;-78
2023/03/19 06:39:23;;;;;;;6.93;5.50;;;;;;;3.04;77.65;62309.41;5013806;28;20402;-79
2023/03/19 06:41:50;;;;;;;6.28;4.68;;;;;;;3.09;77.61;62312.53;5020569;28;20218;-79
2023/03/19 06:44:19;;;;;;;4.78;4.28;;;;;;;3.28;77.02;62334.06;5027365;28;20217;-78
2023/03/19 06:46:46;;;;;;;6.82;4.95;;;;;;;3.29;75.86;62335.09;5026113;28;20282;-78
2023/03/19 06:49:13;;;;;;;6.30;5.00;;;;;;;3.41;76.08;62355.00;5012512;28;20223;-78
2023/03/19 06:51:40;;;;;;;6.00;5.28;;;;;;;3.58;75.15;62364.41;5012024;28;20219;-80
2023/03/19 06:54:09;;;;;;;6.32;4.85;;;;;;;3.74;73.70;62378.34;5030737;28;20381;-80
2023/03/19 06:56:36;;;;;;;5.07;4.57;;;;;;;3.87;71.78;62394.75;5024120;28;20261;-79
2023/03/19 06:59:03;;;;;;;6.45;4.63;;;;;;;4.03;70.35;62416.25;5029272;28;20233;-80
2023/03/19 07:01:32;;;;;;;4.72;4.13;;;;;;;4.04;70.61;62409.72;5025475;28;20215;-78
2023/03/19 07:03:59;;;;;;;5.00;4.55;;;;;;;4.30;69.91;62438.47;5031675;28;20198;-79
2023/03/19 07:06:26;;;;;;;5.93;4.78;;;;;;;4.43;68.30;62457.41;5025433;28;20252;-80
2023/03/19 07:08:53;;;;;;;6.95;4.32;;;;;;;4.35;67.54;62448.66;5029240;28;20199;-79
2023/03/19 07:11:20;;;;;;;7.13;4.88;;;;;;;4.40;67.20;62448.75;5028976;28;20222;-80
2023/03/19 07:13:47;;;;;;;6.55;4.85;;;;;;;4.55;67.06;62464.19;5027446;28;20285;-80
2023/03/19 07:16:14;;;;;;;5.53;4.65;;;;;;;4.74;66.32;62486.28;5026847;28;20225;-80
2023/03/19 07:18:42;;;;;;;5.57;4.90;;;;;;;4.71;65.29;62483.19;5031327;28;20195;-79
2023/03/19 07:21:09;;;;;;;7.50;5.07;;;;;;;4.71;64.00;62481.16;5033405;28;20233;-80
2023/03/19 07:23:36;;;;;;;10.48;6.00;;;;;;;4.69;64.67;62481.13;5030257;28;20202;-80
2023/03/19 07:26:04;;;;;;;7.28;5.68;;;;;;;4.41;64.68;62452.31;5029720;28;20230;-80
2023/03/19 07:28:31;;;;;;;7.32;6.57;;;;;;;4.39;64.74;62443.22;5029798;28;20202;-78
2023/03/19 07:30:58;;;;;;;7.93;5.97;;;;;;;4.54;65.55;62470.72;5029567;28;20211;-80
2023/03/19 07:33:25;;;;;;;8.05;6.22;;;;;;;4.64;64.72;62478.50;5027443;28;20213;-78
2023/03/19 07:35:53;;;;;;;11.25;7.40;;;;;;;4.58;64.74;62467.81;5029743;28;20202;-80
2023/03/19 07:38:20;;;;;;;8.30;6.97;;;;;;;4.65;63.78;62480.06;5033546;28;20218;-78
2023/03/19 07:40:48;;;;;;;8.65;6.60;;;;;;;4.75;63.67;62484.78;5031013;28;20218;-82
2023/03/19 07:43:15;;;;;;;9.40;5.95;;;;;;;4.77;62.62;62489.34;5027952;28;20234;-77
2023/03/19 07:45:42;;;;;;;7.50;5.78;;;;;;;4.91;62.59;62503.25;5028044;28;20254;-82
2023/03/19 07:48:09;;;;;;;10.20;7.28;;;;;;;4.92;62.10;62502.28;5032357;28;20234;-79
2023/03/19 07:50:36;;;;;;;9.98;6.70;;;;;;;4.98;62.43;62510.47;5025178;28;20415;-79
2023/03/19 07:53:05;;;;;;;9.68;7.03;;;;;;;5.13;62.12;62523.91;5028232;28;20462;-80
2023/03/19 07:55:32;;;;;;;8.98;6.63;;;;;;;5.20;61.83;62533.63;5030186;28;20194;-81
2023/03/19 07:57:59;;;;;;;8.35;6.78;;;;;;;5.37;60.88;62551.16;5028304;28;20554;-79
2023/03/19 08:00:26;;;;;;;9.48;6.63;;;;;;;5.51;60.34;62565.06;5028327;28;20221;-80
2023/03/19 08:02:53;;;;;;;9.38;7.15;;;;;;;5.79;59.64;62594.44;5028583;28;20246;-80
2023/03/19 08:05:20;;;;;;;7.93;7.13;;;;;;;5.97;59.21;62614.50;5032652;28;20499;-79
2023/03/19 08:07:50;;;;;;;8.57;6.70;;;;;;;5.96;59.00;62608.41;5028947;28;20231;-81
2023/03/19 08:10:18;;;;;;;11.60;6.93;;;;;;;5.83;58.61;62593.50;5025934;28;20203;-77
2023/03/19 08:12:45;;;;;;;12.43;7.05;;;;;;;5.82;59.04;62597.53;5023832;28;20554;-80
2023/03/19 08:15:13;;;;;;;9.32;7.22;;;;;;;6.08;58.65;62621.28;5028624;28;20202;-79
2023/03/19 08:17:40;;;;;;;6.90;6.28;;;;;;;6.27;58.31;62640.88;5024570;28;20225;-79
2023/03/19 08:20:10;;;;;;;13.35;7.60;;;;;;;6.03;57.94;62616.13;5030293;28;20198;-78
2023/03/19 08:22:38;;;;;;;11.05;7.13;;;;;;;5.96;58.35;62608.41;5024180;28;20218;-79
2023/03/19 08:25:06;;;;;;;8.82;6.45;;;;;;;6.20;58.09;62633.66;5030561;28;20234;-79
2023/03/19 08:27:35;;;;;;;11.82;6.85;;;;;;;6.32;57.76;62650.56;5028473;28;20268;-78
2023/03/19 08:30:02;;;;;;;9.50;7.53;;;;;;;6.46;57.53;62660.47;5028701;28;20233;-79
2023/03/19 08:32:30;;;;;;;7.95;6.45;;;;;;;6.57;56.64;62673.81;5032924;28;20241;-79
2023/03/19 08:34:57;;;;;;;7.25;6.50;;;;;;;6.59;56.56;62678.41;5036757;28;20223;-78
2023/03/19 08:37:24;;;;;;;11.27;6.93;;;;;;;6.66;56.13;62680.56;5027939;28;20250;-80
2023/03/19 08:39:51;;;;;;;11.88;6.70;;;;;;;6.74;55.90;62694.41;5031860;28;20206;-80
2023/03/19 08:42:18;;;;;;;22.92;13.45;;;;;;;7.07;55.33;62725.91;5028913;28;20219;-81
2023/03/19 08:44:46;;;;;;;7.28;6.45;;;;;;;7.14;53.69;62730.09;5032947;28;20205;-79
2023/03/19 08:47:13;;;;;;;8.88;6.68;;;;;;;7.16;54.02;62732.16;5029134;28;20268;-78
2023/03/19 08:49:40;;;;;;;8.15;6.60;;;;;;;7.27;53.82;62750.56;5033831;28;20201;-80
2023/03/19 08:52:08;;;;;;;9.60;7.03;;;;;;;7.42;53.09;62758.97;5029379;28;20222;-79
2023/03/19 08:54:36;;;;;;;9.35;7.00;;;;;;;7.50;52.79;62771.78;5034484;28;20320;-78
2023/03/19 08:57:03;;;;;;;9.13;7.30;;;;;;;7.44;53.12;62761.03;5025779;28;20522;-80
2023/03/19 08:59:30;;;;;;;11.98;7.20;;;;;;;7.54;53.92;62773.38;5027786;28;20211;-77
2023/03/19 09:01:59;;;;;;;11.23;7.43;;;;;;;7.53;53.24;62775.38;5025974;28;20218;-78
2023/03/19 09:04:26;;;;;;;10.15;7.07;;;;;;;7.71;54.28;62791.44;5022662;28;20488;-78
2023/03/19 09:06:53;;;;;;;9.25;7.07;;;;;;;7.79;52.89;62799.19;5025365;28;20259;-79
2023/03/19 09:09:22;;;;;;;10.82;7.13;;;;;;;7.64;53.04;62781.69;5023562;28;20225;-77
2023/03/19 09:11:49;;;;;;;8.45;6.88;;;;;;;7.82;53.04;62802.25;5024437;28;20223;-78
2023/03/19 09:14:18;;;;;;;12.13;7.50;;;;;;;7.70;52.95;62787.34;5028794;28;20237;-78
2023/03/19 09:16:46;;;;;;;17.25;8.05;;;;;;;7.79;52.95;62802.22;5010943;28;20219;-79
2023/03/19 09:19:15;;;;;;;11.00;7.22;;;;;;;7.85;52.84;62808.41;5006497;28;20214;-78
2023/03/19 09:21:43;;;;;;;11.55;7.55;;;;;;;7.96;51.84;62814.72;5014119;28;20266;-78
2023/03/19 09:24:10;;;;;;;10.55;7.00;;;;;;;8.11;52.09;62834.75;5025438;28;20230;-79
2023/03/19 09:26:38;;;;;;;9.95;7.40;;;;;;;8.26;52.07;62850.28;5027586;28;20237;-77
2023/03/19 09:29:05;;;;;;;13.20;8.25;;;;;;;8.33;51.22;62849.38;5027668;28;20195;-79
2023/03/19 09:31:35;;;;;;;11.25;8.15;;;;;;;8.26;51.15;62847.22;5009950;28;20426;-80
2023/03/19 09:34:03;;;;;;;12.68;7.95;;;;;;;8.27;51.11;62850.78;5009409;28;20519;-79
2023/03/19 09:36:31;;;;;;;9.70;7.30;;;;;;;8.50;50.76;62877.06;5008875;28;20262;-78
2023/03/19 09:38:58;;;;;;;11.05;7.82;;;;;;;8.55;50.94;62874.63;5009253;28;20206;-78
2023/03/19 09:41:34;;;;;;;10.82;7.53;;;;;;;8.70;49.79;62893.19;5007460;28;20266;-77
2023/03/19 09:44:02;;;;;;;10.55;8.32;;;;;;;8.74;50.27;62897.31;5019113;28;20233;-79
2023/03/19 09:46:43;;;;;;;10.05;7.90;;;;;;;8.82;50.70;62908.13;5026584;28;20234;-78
2023/03/19 09:49:22;;;;;;;10.15;7.47;;;;;;;9.06;48.99;62932.91;5026357;28;20585;-78
2023/03/19 09:51:53;;;;;;;8.80;6.95;;;;;;;9.17;47.43;62943.78;5026172;28;20218;-78
2023/03/19 09:54:29;;;;;;;9.48;7.38;;;;;;;9.11;47.26;62935.53;5029596;28;20241;-77
2023/03/19 09:56:56;;;;;;;8.48;7.55;;;;;;;8.97;47.84;62925.66;5022654;28;20210;-76
2023/03/19 09:59:26;;;;;;;11.60;7.75;;;;;;;9.08;48.02;62932.44;5027287;28;20194;-78
2023/03/19 10:02:13;;;;;;;11.00;7.85;;;;;;;9.26;47.70;62951.06;5024164;28;20591;-76
2023/03/19 10:04:46;;;;;;;8.13;7.18;;;;;;;9.37;47.59;62963.94;5013799;28;20219;-76
2023/03/19 10:07:25;;;;;;;9.13;8.05;;;;;;;9.70;46.08;62998.06;5016510;28;20234;-78
2023/03/19 10:10:35;;;;;;;12.95;7.75;;;;;;;9.76;45.79;63001.72;5020052;28;20207;-79
2023/03/19 10:13:13;;;;;;;11.65;9.32;;;;;;;9.82;46.53;63005.41;5019588;28;20222;-79
2023/03/19 10:15:43;;;;;;;14.68;8.45;;;;;;;10.10;45.73;63034.38;5011657;28;20216;-79
2023/03/19 10:18:16;;;;;;;10.93;8.07;;;;;;;10.00;45.63;63029.09;5025852;28;20270;-77
2023/03/19 10:20:52;;;;;;;13.45;8.48;;;;;;;10.13;44.84;63042.56;5027055;28;20278;-79
2023/03/19 10:23:32;;;;;;;11.00;8.10;;;;;;;10.18;45.04;63045.19;5027570;28;20222;-78
2023/03/19 10:26:02;;;;;;;11.63;8.48;;;;;;;10.36;45.74;63066.88;5025567;28;20237;-76
2023/03/19 10:28:30;;;;;;;15.85;9.57;;;;;;;10.47;45.49;63073.16;5031685;28;20262;-79
2023/03/19 10:31:07;;;;;;;11.60;8.90;;;;;;;10.70;45.01;63098.50;5029225;28;20199;-77
2023/03/19 10:33:45;;;;;;;12.32;9.07;;;;;;;10.70;44.68;63101.53;5027086;28;20218;-78
2023/03/19 10:36:13;;;;;;;8.55;7.43;;;;;;;11.01;42.30;63133.13;5026820;28;20210;-78
2023/03/19 10:38:43;;;;;;;11.43;8.02;;;;;;;10.87;43.85;63116.59;5032301;28;20210;-80
2023/03/19 10:41:34;;;;;;;12.25;8.50;;;;;;;10.97;43.73;63129.50;5030441;28;20421;-80
2023/03/19 10:44:03;;;;;;;15.30;8.88;;;;;;;11.15;43.29;63145.06;5028635;28;20199;-78
2023/03/19 10:46:38;;;;;;;12.98;8.63;;;;;;;11.37;42.25;63167.88;5034559;28;20233;-80
2023/03/19 10:49:11;;;;;;;8.90;7.95;;;;;;;11.30;42.70;63158.56;5031482;28;20190;-80
2023/03/19 10:51:38;;;;;;;11.18;9.13;;;;;;;11.41;42.54;63174.53;5027401;28;20229;-81
2023/03/19 10:54:19;;;;;;;10.55;7.68;;;;;;;11.16;42.47;63149.19;5031150;28;20225;-79
2023/03/19 10:56:48;;;;;;;10.48;7.30;;;;;;;11.23;42.62;63148.75;5028764;28;20245;-80
2023/03/19 10:59:23;;;;;;;9.85;7.80;;;;;;;11.47;42.37;63178.75;5030401;28;20198;-79
2023/03/19 11:01:50;;;;;;;13.20;7.65;;;;;;;11.53;42.07;63184.94;5024564;28;20222;-80
2023/03/19 11:04:20;;;;;;;10.98;7.40;;;;;;;11.70;41.96;63202.06;5028120;28;20508;-79
2023/03/19 11:06:50;;;;;;;11.73;8.40;;;;;;;11.83;41.84;63215.00;5028029;28;20234;-80
2023/03/19 11:09:27;;;;;;;12.98;7.88;;;;;;;12.11;41.69;63249.66;5030393;28;20417;-79
2023/03/19 11:11:59;;;;;;;12.13;8.43;;;;;;;12.28;40.94;63259.09;5031456;28;20226;-78
2023/03/19 11:14:34;;;;;;;8.88;7.97;;;;;;;12.36;41.13;63273.00;5027846;28;20289;-78
2023/03/19 11:17:06;;;;;;;10.75;8.25;;;;;;;12.46;41.26;63283.38;5024639;28;20214;-80
2023/03/19 11:19:39;;;;;;;12.68;7.93;;;;;;;12.37;40.22;63273.53;5026194;28;20202;-76
2023/03/19 11:22:15;;;;;;;10.90;7.72;;;;;;;12.46;40.43;63278.25;5040521;28;20217;-78
2023/03/19 11:24:51;;;;;;;8.05;6.88;;;;;;;12.46;39.54;63282.84;5034876;28;20491;-79
2023/03/19 11:27:19;;;;;;;10.10;7.95;;;;;;;12.51;40.51;63283.44;5034186;28;20288;-80
2023/03/19 11:29:46;;;;;;;10.10;7.00;;;;;;;12.65;39.87;63297.97;5031280;28;20222;-78
2023/03/19 11:32:24;;;;;;;9.10;6.60;;;;;;;12.52;39.33;63289.59;5028987;28;20226;-79
2023/03/19 11:34:57;;;;;;;7.65;5.90;;;;;;;12.73;38.88;63311.34;5016489;28;20198;-79
2023/03/19 11:37:33;;;;;;;6.57;5.90;;;;;;;12.70;38.57;63303.16;5027422;28;20223;-80
2023/03/19 11:40:13;;;;;;;11.18;6.80;;;;;;;12.52;39.18;63286.53;5030803;28;20202;-82
2023/03/19 11:43:03;;;;;;;7.50;6.30;;;;;;;12.62;40.31;63294.34;5025500;28;20211;-79
2023/03/19 11:45:36;;;;;;;7.85;6.10;;;;;;;12.56;38.80;63293.72;5042805;28;20198;-80
2023/03/19 11:48:20;;;;;;;9.00;7.32;;;;;;;12.85;38.13;63320.22;5033924;28;20221;-79